createdAt,value
2016-12-17T00:00:02.686Z,0
2016-12-17T00:01:02.668Z,0
2016-12-17T00:02:02.651Z,0
2016-12-17T00:03:02.666Z,0
2016-12-17T00:04:02.619Z,0
2016-12-17T00:05:02.600Z,0
2016-12-17T00:06:02.590Z,0
2016-12-17T00:07:02.569Z,0
2016-12-17T00:08:02.558Z,0
2016-12-17T00:09:02.535Z,0
2016-12-17T00:10:02.514Z,0
2016-12-17T00:11:02.497Z,0
2016-12-17T00:12:02.482Z,0
2016-12-17T00:13:02.463Z,0
2016-12-17T00:14:02.449Z,0
2016-12-17T00:15:02.430Z,0
2016-12-17T00:16:02.712Z,0
2016-12-17T00:17:02.397Z,0
2016-12-17T00:18:02.378Z,0
2016-12-17T00:19:02.361Z,0
2016-12-17T00:20:02.345Z,0
2016-12-17T00:21:02.326Z,0
2016-12-17T00:22:02.312Z,0
2016-12-17T00:23:02.293Z,0
2016-12-17T00:24:02.270Z,0
2016-12-17T00:25:02.264Z,0
2016-12-17T00:26:02.242Z,0
2016-12-17T00:27:02.228Z,0
2016-12-17T00:28:02.209Z,0
2016-12-17T00:29:02.221Z,0
2016-12-17T00:30:02.182Z,0
2016-12-17T00:31:02.153Z,0
2016-12-17T00:32:02.139Z,0
2016-12-17T00:33:02.123Z,0
2016-12-17T00:34:02.105Z,0
2016-12-17T00:35:02.087Z,0
2016-12-17T00:36:02.396Z,0
2016-12-17T00:37:02.047Z,0
2016-12-17T00:38:02.033Z,0
2016-12-17T00:39:02.046Z,0
2016-12-17T00:40:02.004Z,0
2016-12-17T00:41:01.987Z,0
2016-12-17T00:42:01.984Z,0
2016-12-17T00:43:01.951Z,0
2016-12-17T00:44:01.939Z,0
2016-12-17T00:45:01.925Z,0
2016-12-17T00:46:01.899Z,0
2016-12-17T00:47:01.882Z,0
2016-12-17T00:48:01.863Z,0
2016-12-17T00:49:01.843Z,0
2016-12-17T00:50:01.829Z,0
2016-12-17T00:51:01.814Z,0
2016-12-17T00:52:01.791Z,0
2016-12-17T00:53:01.777Z,0
2016-12-17T00:54:01.753Z,0
2016-12-17T00:55:01.738Z,0
2016-12-17T00:56:01.721Z,0
2016-12-17T00:57:01.737Z,0
2016-12-17T00:58:01.688Z,0
2016-12-17T00:59:01.674Z,0
2016-12-17T01:00:01.651Z,0
2016-12-17T01:01:01.638Z,0
2016-12-17T01:02:01.621Z,0
2016-12-17T01:03:01.599Z,0
2016-12-17T01:04:01.581Z,0
2016-12-17T01:05:01.564Z,0
2016-12-17T01:06:01.551Z,0
2016-12-17T01:07:01.531Z,0
2016-12-17T01:08:01.515Z,0
2016-12-17T01:09:01.499Z,0
2016-12-17T01:10:01.473Z,0
2016-12-17T01:11:01.464Z,0
2016-12-17T01:12:01.445Z,0
2016-12-17T01:13:01.427Z,0
2016-12-17T01:14:01.410Z,0
2016-12-17T01:15:01.389Z,0
2016-12-17T01:16:01.405Z,0
2016-12-17T01:17:01.354Z,0
2016-12-17T01:18:01.337Z,0
2016-12-17T01:19:01.315Z,0
2016-12-17T01:20:01.306Z,0
2016-12-17T01:21:01.288Z,0
2016-12-17T01:22:01.267Z,0
2016-12-17T01:23:01.278Z,0
2016-12-17T01:24:01.234Z,0
2016-12-17T01:25:01.212Z,0
2016-12-17T01:26:01.196Z,0
2016-12-17T01:27:01.184Z,0
2016-12-17T01:28:01.162Z,0
2016-12-17T01:29:01.145Z,0
2016-12-17T01:30:01.126Z,0
2016-12-17T01:31:01.115Z,0
2016-12-17T01:32:01.090Z,0
2016-12-17T01:33:01.070Z,0
2016-12-17T01:34:01.058Z,0
2016-12-17T01:35:01.040Z,0
2016-12-17T01:36:01.027Z,0
2016-12-17T01:37:01.013Z,0
2016-12-17T01:38:00.983Z,0
2016-12-17T01:39:00.996Z,0
2016-12-17T01:40:00.953Z,0
2016-12-17T01:41:00.934Z,0
2016-12-17T01:42:00.921Z,0
2016-12-17T01:43:00.902Z,0
2016-12-17T01:44:00.883Z,0
2016-12-17T01:45:00.864Z,0
2016-12-17T01:46:00.843Z,0
2016-12-17T01:47:00.834Z,0
2016-12-17T01:48:00.810Z,0
2016-12-17T01:49:00.792Z,0
2016-12-17T01:50:00.778Z,0
2016-12-17T01:51:00.755Z,0
2016-12-17T01:52:00.779Z,0
2016-12-17T01:53:00.726Z,0
2016-12-17T01:54:01.027Z,0
2016-12-17T01:55:00.693Z,0
2016-12-17T01:56:00.670Z,0
2016-12-17T01:57:00.658Z,0
2016-12-17T01:58:00.639Z,0
2016-12-17T01:59:00.621Z,0
2016-12-17T02:00:00.907Z,0
2016-12-17T02:01:00.886Z,0
2016-12-17T02:02:00.868Z,0
2016-12-17T02:03:00.563Z,0
2016-12-17T02:04:00.537Z,0
2016-12-17T02:05:00.516Z,0
2016-12-17T02:06:00.499Z,0
2016-12-17T02:07:00.478Z,0
2016-12-17T02:08:00.468Z,0
2016-12-17T02:09:00.443Z,0
2016-12-17T02:10:00.425Z,0
2016-12-17T02:11:00.406Z,0
2016-12-17T02:12:00.388Z,0
2016-12-17T02:13:00.376Z,0
2016-12-17T02:14:00.351Z,0
2016-12-17T02:15:00.336Z,0
2016-12-17T02:16:00.619Z,0
2016-12-17T02:17:00.301Z,0
2016-12-17T02:18:00.284Z,0
2016-12-17T02:19:00.257Z,0
2016-12-17T02:20:00.242Z,0
2016-12-17T02:21:00.233Z,0
2016-12-17T02:22:00.208Z,0
2016-12-17T02:23:00.187Z,0
2016-12-17T02:24:00.169Z,0
2016-12-17T02:25:00.151Z,0
2016-12-17T02:26:00.135Z,0
2016-12-17T02:27:00.119Z,0
2016-12-17T02:28:00.099Z,0
2016-12-17T02:29:00.081Z,0
2016-12-17T02:30:00.063Z,0
2016-12-17T02:31:00.095Z,0
2016-12-17T02:32:00.024Z,0
2016-12-17T02:33:00.011Z,0
2016-12-17T02:33:59.979Z,0
2016-12-17T02:34:59.965Z,0
2016-12-17T02:35:59.948Z,0
2016-12-17T02:36:59.923Z,0
2016-12-17T02:37:59.904Z,0
2016-12-17T02:38:59.891Z,0
2016-12-17T02:39:59.867Z,0
2016-12-17T02:40:59.850Z,0
2016-12-17T02:41:59.832Z,0
2016-12-17T02:42:59.810Z,0
2016-12-17T02:43:59.806Z,0
2016-12-17T02:44:59.779Z,0
2016-12-17T02:45:59.759Z,0
2016-12-17T02:46:59.744Z,0
2016-12-17T02:47:59.719Z,0
2016-12-17T02:48:59.703Z,0
2016-12-17T02:49:59.686Z,0
2016-12-17T02:50:59.667Z,0
2016-12-17T02:51:59.648Z,0
2016-12-17T02:52:59.627Z,0
2016-12-17T02:53:59.613Z,0
2016-12-17T02:54:59.588Z,0
2016-12-17T02:55:59.576Z,0
2016-12-17T02:56:59.554Z,0
2016-12-17T02:57:59.566Z,0
2016-12-17T02:58:59.517Z,0
2016-12-17T02:59:59.508Z,0
2016-12-17T03:00:59.483Z,0
2016-12-17T03:01:59.460Z,0
2016-12-17T03:02:59.441Z,0
2016-12-17T03:03:59.426Z,0
2016-12-17T03:04:59.405Z,0
2016-12-17T03:05:59.389Z,0
2016-12-17T03:06:59.368Z,0
2016-12-17T03:07:59.348Z,0
2016-12-17T03:08:59.333Z,0
2016-12-17T03:09:59.311Z,0
2016-12-17T03:10:59.293Z,0
2016-12-17T03:11:59.276Z,0
2016-12-17T03:12:59.251Z,0
2016-12-17T03:13:59.241Z,0
2016-12-17T03:14:59.220Z,0
2016-12-17T03:15:59.205Z,0
2016-12-17T03:16:59.178Z,0
2016-12-17T03:17:59.168Z,0
2016-12-17T03:18:59.140Z,0
2016-12-17T03:19:59.125Z,0
2016-12-17T03:20:59.105Z,0
2016-12-17T03:21:59.082Z,0
2016-12-17T03:22:59.067Z,0
2016-12-17T03:23:59.044Z,0
2016-12-17T03:24:59.034Z,0
2016-12-17T03:25:59.015Z,0
2016-12-17T03:26:58.992Z,0
2016-12-17T03:27:58.976Z,0
2016-12-17T03:28:58.956Z,0
2016-12-17T03:29:58.933Z,0
2016-12-17T03:30:58.914Z,0
2016-12-17T03:31:58.903Z,0
2016-12-17T03:32:58.881Z,0
2016-12-17T03:33:58.857Z,0
2016-12-17T03:34:58.872Z,0
2016-12-17T03:35:58.822Z,0
2016-12-17T03:36:59.107Z,0
2016-12-17T03:37:58.786Z,0
2016-12-17T03:38:58.764Z,0
2016-12-17T03:39:58.745Z,0
2016-12-17T03:40:58.729Z,0
2016-12-17T03:41:58.705Z,0
2016-12-17T03:42:58.691Z,0
2016-12-17T03:43:58.673Z,0
2016-12-17T03:44:58.651Z,0
2016-12-17T03:45:58.628Z,0
2016-12-17T03:46:58.617Z,0
2016-12-17T03:47:58.593Z,0
2016-12-17T03:48:58.578Z,0
2016-12-17T03:49:58.558Z,0
2016-12-17T03:50:58.538Z,0
2016-12-17T03:51:58.523Z,0
2016-12-17T03:52:58.499Z,0
2016-12-17T03:53:58.479Z,0
2016-12-17T03:54:58.457Z,0
2016-12-17T03:55:58.436Z,0
2016-12-17T03:56:58.420Z,0
2016-12-17T03:57:58.401Z,0
2016-12-17T03:58:58.384Z,0
2016-12-17T03:59:58.367Z,0
2016-12-17T04:00:58.349Z,0
2016-12-17T04:01:58.632Z,0
2016-12-17T04:02:58.606Z,0
2016-12-17T04:03:58.283Z,0
2016-12-17T04:04:58.270Z,0
2016-12-17T04:05:58.245Z,0
2016-12-17T04:06:58.258Z,0
2016-12-17T04:07:58.213Z,0
2016-12-17T04:08:58.488Z,0
2016-12-17T04:09:58.176Z,0
2016-12-17T04:10:58.148Z,0
2016-12-17T04:11:58.134Z,0
2016-12-17T04:12:58.108Z,0
2016-12-17T04:13:58.086Z,0
2016-12-17T04:14:58.074Z,0
2016-12-17T04:15:58.051Z,0
2016-12-17T04:16:58.031Z,0
2016-12-17T04:17:58.012Z,0
2016-12-17T04:18:57.995Z,0
2016-12-17T04:19:57.987Z,0
2016-12-17T04:20:57.948Z,0
2016-12-17T04:21:57.939Z,0
2016-12-17T04:22:57.910Z,0
2016-12-17T04:23:57.900Z,0
2016-12-17T04:24:57.877Z,0
2016-12-17T04:25:57.859Z,0
2016-12-17T04:26:57.839Z,0
2016-12-17T04:27:57.829Z,0
2016-12-17T04:28:57.817Z,0
2016-12-17T04:29:57.781Z,0
2016-12-17T04:30:57.762Z,0
2016-12-17T04:31:57.744Z,0
2016-12-17T04:32:57.724Z,0
2016-12-17T04:33:57.707Z,0
2016-12-17T04:34:57.681Z,0
2016-12-17T04:35:57.665Z,0
2016-12-17T04:36:57.652Z,0
2016-12-17T04:37:57.639Z,0
2016-12-17T04:38:57.611Z,0
2016-12-17T04:39:57.587Z,0
2016-12-17T04:40:57.577Z,0
2016-12-17T04:41:57.559Z,0
2016-12-17T04:42:57.536Z,0
2016-12-17T04:43:57.522Z,0
2016-12-17T04:44:57.499Z,0
2016-12-17T04:45:57.483Z,0
2016-12-17T04:46:57.464Z,0
2016-12-17T04:47:57.452Z,0
2016-12-17T04:48:57.432Z,0
2016-12-17T04:49:57.412Z,0
2016-12-17T04:50:57.395Z,0
2016-12-17T04:51:57.373Z,0
2016-12-17T04:52:57.358Z,0
2016-12-17T04:53:57.343Z,0
2016-12-17T04:54:57.324Z,0
2016-12-17T04:55:57.305Z,0
2016-12-17T04:56:57.287Z,0
2016-12-17T04:57:57.274Z,0
2016-12-17T04:58:57.454Z,0
2016-12-17T04:59:57.236Z,0
2016-12-17T05:00:57.218Z,0
2016-12-17T05:01:57.200Z,0
2016-12-17T05:02:57.184Z,0
2016-12-17T05:03:57.198Z,0
2016-12-17T05:04:57.147Z,0
2016-12-17T05:05:57.132Z,0
2016-12-17T05:06:57.116Z,0
2016-12-17T05:07:57.099Z,0
2016-12-17T05:08:57.086Z,0
2016-12-17T05:09:57.061Z,0
2016-12-17T05:10:57.049Z,0
2016-12-17T05:11:57.028Z,0
2016-12-17T05:12:57.018Z,0
2016-12-17T05:13:56.998Z,0
2016-12-17T05:14:56.979Z,0
2016-12-17T05:15:56.962Z,0
2016-12-17T05:16:56.945Z,0
2016-12-17T05:17:56.925Z,0
2016-12-17T05:18:56.911Z,0
2016-12-17T05:19:56.887Z,0
2016-12-17T05:20:56.874Z,0
2016-12-17T05:21:56.856Z,0
2016-12-17T05:22:56.837Z,0
2016-12-17T05:23:56.824Z,0
2016-12-17T05:24:56.805Z,0
2016-12-17T05:25:56.790Z,0
2016-12-17T05:26:56.767Z,0
2016-12-17T05:27:56.958Z,0
2016-12-17T05:28:56.733Z,0
2016-12-17T05:29:56.715Z,0
2016-12-17T05:30:56.699Z,0
2016-12-17T05:31:56.677Z,0
2016-12-17T05:32:56.706Z,0
2016-12-17T05:33:56.649Z,0
2016-12-17T05:34:56.628Z,0
2016-12-17T05:35:56.608Z,0
2016-12-17T05:36:56.595Z,0
2016-12-17T05:37:56.575Z,0
2016-12-17T05:38:56.559Z,0
2016-12-17T05:39:56.542Z,0
2016-12-17T05:40:56.521Z,0
2016-12-17T05:41:56.504Z,0
2016-12-17T05:42:56.791Z,0
2016-12-17T05:43:56.474Z,0
2016-12-17T05:44:56.454Z,0
2016-12-17T05:45:56.434Z,0
2016-12-17T05:46:56.419Z,0
2016-12-17T05:47:56.400Z,0
2016-12-17T05:48:56.384Z,0
2016-12-17T05:49:56.364Z,0
2016-12-17T05:50:56.380Z,0
2016-12-17T05:51:56.328Z,0
2016-12-17T05:52:56.613Z,0
2016-12-17T05:53:56.288Z,0
2016-12-17T05:54:56.273Z,0
2016-12-17T05:56:11.168Z,0
2016-12-17T05:56:56.426Z,0
2016-12-17T05:57:56.219Z,0
2016-12-17T05:58:56.208Z,0
2016-12-17T05:59:56.184Z,0
2016-12-17T06:00:56.169Z,0
2016-12-17T06:01:56.151Z,0
2016-12-17T06:02:56.130Z,0
2016-12-17T06:03:56.117Z,0
2016-12-17T06:04:56.094Z,0
2016-12-17T06:05:56.080Z,0
2016-12-17T06:06:56.056Z,0
2016-12-17T06:07:56.067Z,0
2016-12-17T06:08:56.019Z,0
2016-12-17T06:09:56.005Z,0
2016-12-17T06:10:55.983Z,0
2016-12-17T06:11:55.968Z,0
2016-12-17T06:12:56.261Z,0
2016-12-17T06:13:55.927Z,0
2016-12-17T06:14:55.906Z,0
2016-12-17T06:15:55.891Z,0
2016-12-17T06:16:55.876Z,0
2016-12-17T06:17:55.855Z,0
2016-12-17T06:18:55.830Z,0
2016-12-17T06:19:55.844Z,0
2016-12-17T06:20:55.796Z,0
2016-12-17T06:21:55.770Z,0
2016-12-17T06:22:55.757Z,0
2016-12-17T06:23:55.734Z,0
2016-12-17T06:24:55.900Z,0
2016-12-17T06:25:55.695Z,0
2016-12-17T06:26:55.669Z,0
2016-12-17T06:27:55.656Z,0
2016-12-17T06:28:55.632Z,0
2016-12-17T06:29:55.626Z,0
2016-12-17T06:30:55.592Z,0
2016-12-17T06:31:55.570Z,0
2016-12-17T06:32:55.554Z,0
2016-12-17T06:33:55.536Z,0
2016-12-17T06:34:55.516Z,0
2016-12-17T06:35:55.488Z,0
2016-12-17T06:36:55.469Z,0
2016-12-17T06:37:55.456Z,5
2016-12-17T06:38:55.432Z,5
2016-12-17T06:39:55.409Z,5
2016-12-17T06:40:55.391Z,5
2016-12-17T06:41:55.373Z,5
2016-12-17T06:42:55.356Z,5
2016-12-17T06:43:55.332Z,5
2016-12-17T06:44:55.318Z,10
2016-12-17T06:45:55.291Z,10
2016-12-17T06:46:55.279Z,10
2016-12-17T06:47:55.278Z,10
2016-12-17T06:48:55.232Z,15
2016-12-17T06:49:55.211Z,15
2016-12-17T06:50:55.193Z,15
2016-12-17T06:51:55.387Z,20
2016-12-17T06:52:55.159Z,20
2016-12-17T06:53:55.135Z,20
2016-12-17T06:54:55.122Z,25
2016-12-17T06:55:55.097Z,25
2016-12-17T06:56:55.079Z,30
2016-12-17T06:57:55.055Z,30
2016-12-17T06:58:55.043Z,35
2016-12-17T06:59:55.018Z,35
2016-12-17T07:00:54.994Z,45
2016-12-17T07:01:55.589Z,45
2016-12-17T07:02:54.957Z,50
2016-12-17T07:03:54.936Z,50
2016-12-17T07:04:54.916Z,50
2016-12-17T07:05:55.197Z,55
2016-12-17T07:06:54.879Z,60
2016-12-17T07:07:54.888Z,70
2016-12-17T07:08:54.834Z,70
2016-12-17T07:09:54.824Z,80
2016-12-17T07:10:54.801Z,95
2016-12-17T07:11:54.775Z,105
2016-12-17T07:12:54.764Z,115
2016-12-17T07:13:54.740Z,120
2016-12-17T07:14:54.728Z,120
2016-12-17T07:15:54.703Z,115
2016-12-17T07:16:54.712Z,115
2016-12-17T07:17:54.719Z,115
2016-12-17T07:18:54.847Z,120
2016-12-17T07:19:54.658Z,125
2016-12-17T07:20:54.605Z,135
2016-12-17T07:21:54.589Z,150
2016-12-17T07:22:54.568Z,155
2016-12-17T07:23:54.556Z,165
2016-12-17T07:24:54.538Z,175
2016-12-17T07:25:54.518Z,185
2016-12-17T07:26:54.499Z,200
2016-12-17T07:27:54.483Z,200
2016-12-17T07:28:54.456Z,200
2016-12-17T07:29:54.446Z,210
2016-12-17T07:30:54.419Z,220
2016-12-17T07:31:54.409Z,230
2016-12-17T07:32:54.385Z,240
2016-12-17T07:33:54.374Z,255
2016-12-17T07:34:54.346Z,265
2016-12-17T07:35:54.331Z,260
2016-12-17T07:36:54.320Z,255
2016-12-17T07:37:54.292Z,270
2016-12-17T07:38:54.277Z,290
2016-12-17T07:39:54.259Z,310
2016-12-17T07:40:54.245Z,315
2016-12-17T07:41:54.226Z,325
2016-12-17T07:42:54.202Z,335
2016-12-17T07:43:54.192Z,345
2016-12-17T07:44:54.172Z,350
2016-12-17T07:45:54.155Z,355
2016-12-17T07:46:54.140Z,360
2016-12-17T07:47:54.116Z,385
2016-12-17T07:48:54.094Z,380
2016-12-17T07:49:54.078Z,390
2016-12-17T07:50:54.059Z,400
2016-12-17T07:51:54.045Z,375
2016-12-17T07:52:54.028Z,360
2016-12-17T07:53:54.006Z,335
2016-12-17T07:54:53.992Z,325
2016-12-17T07:55:53.971Z,340
2016-12-17T07:56:53.952Z,355
2016-12-17T07:57:53.936Z,365
2016-12-17T07:58:53.924Z,375
2016-12-17T07:59:53.902Z,425
2016-12-17T08:00:53.887Z,480
2016-12-17T08:01:53.870Z,505
2016-12-17T08:02:53.854Z,530
2016-12-17T08:03:53.826Z,545
2016-12-17T08:04:54.120Z,550
2016-12-17T08:05:53.798Z,570
2016-12-17T08:06:53.781Z,570
2016-12-17T08:07:53.759Z,550
2016-12-17T08:08:53.743Z,535
2016-12-17T08:09:53.726Z,535
2016-12-17T08:10:53.706Z,555
2016-12-17T08:11:53.692Z,585
2016-12-17T08:12:53.670Z,595
2016-12-17T08:13:53.990Z,605
2016-12-17T08:14:53.637Z,610
2016-12-17T08:15:53.617Z,635
2016-12-17T08:16:53.604Z,680
2016-12-17T08:17:53.589Z,725
2016-12-17T08:18:53.567Z,730
2016-12-17T08:19:53.553Z,735
2016-12-17T08:20:53.545Z,735
2016-12-17T08:21:53.512Z,745
2016-12-17T08:22:53.497Z,750
2016-12-17T08:23:53.487Z,750
2016-12-17T08:24:53.471Z,780
2016-12-17T08:25:53.447Z,775
2016-12-17T08:26:53.428Z,660
2016-12-17T08:27:53.405Z,665
2016-12-17T08:28:53.393Z,625
2016-12-17T08:29:53.376Z,645
2016-12-17T08:30:53.358Z,860
2016-12-17T08:31:53.336Z,870
2016-12-17T08:32:53.320Z,750
2016-12-17T08:33:53.305Z,870
2016-12-17T08:34:53.288Z,895
2016-12-17T08:35:53.273Z,935
2016-12-17T08:36:53.248Z,965
2016-12-17T08:37:53.228Z,950
2016-12-17T08:38:53.252Z,950
2016-12-17T08:39:53.196Z,965
2016-12-17T08:40:53.177Z,935
2016-12-17T08:41:53.165Z,965
2016-12-17T08:42:53.147Z,1030
2016-12-17T08:43:53.121Z,1020
2016-12-17T08:44:53.134Z,990
2016-12-17T08:45:53.092Z,1040
2016-12-17T08:46:53.073Z,1095
2016-12-17T08:47:53.055Z,1055
2016-12-17T08:48:53.041Z,1050
2016-12-17T08:49:53.020Z,1115
2016-12-17T08:50:53.030Z,1150
2016-12-17T08:51:52.989Z,1070
2016-12-17T08:52:52.963Z,1075
2016-12-17T08:53:52.953Z,1110
2016-12-17T08:54:52.930Z,1095
2016-12-17T08:55:52.914Z,1110
2016-12-17T08:56:52.901Z,1175
2016-12-17T08:57:52.880Z,1190
2016-12-17T08:58:52.875Z,1150
2016-12-17T08:59:52.858Z,1095
2016-12-17T09:00:52.841Z,1045
2016-12-17T09:01:52.823Z,1065
2016-12-17T09:02:52.805Z,1145
2016-12-17T09:03:52.789Z,1160
2016-12-17T09:04:52.790Z,1210
2016-12-17T09:05:52.757Z,1240
2016-12-17T09:06:52.745Z,1295
2016-12-17T09:07:52.733Z,1370
2016-12-17T09:08:52.716Z,1070
2016-12-17T09:09:52.731Z,1270
2016-12-17T09:10:52.690Z,1275
2016-12-17T09:11:52.677Z,1345
2016-12-17T09:12:52.661Z,1415
2016-12-17T09:13:52.668Z,1435
2016-12-17T09:14:52.629Z,1430
2016-12-17T09:15:52.609Z,1440
2016-12-17T09:16:52.598Z,1495
2016-12-17T09:17:52.584Z,1320
2016-12-17T09:18:52.568Z,1190
2016-12-17T09:19:52.553Z,1140
2016-12-17T09:20:52.535Z,1210
2016-12-17T09:21:52.528Z,1255
2016-12-17T09:22:52.501Z,1215
2016-12-17T09:23:52.484Z,1140
2016-12-17T09:24:52.499Z,1070
2016-12-17T09:25:52.458Z,1110
2016-12-17T09:26:52.447Z,1075
2016-12-17T09:27:52.429Z,1035
2016-12-17T09:28:52.419Z,990
2016-12-17T09:29:52.405Z,955
2016-12-17T09:30:52.393Z,980
2016-12-17T09:31:52.374Z,1060
2016-12-17T09:32:52.365Z,985
2016-12-17T09:33:52.350Z,855
2016-12-17T09:34:52.336Z,790
2016-12-17T09:35:52.322Z,770
2016-12-17T09:36:52.313Z,770
2016-12-17T09:37:52.303Z,775
2016-12-17T09:38:52.290Z,805
2016-12-17T09:39:52.271Z,875
2016-12-17T09:40:52.258Z,925
2016-12-17T09:41:52.249Z,1285
2016-12-17T09:42:52.271Z,1630
2016-12-17T09:43:52.526Z,1505
2016-12-17T09:44:52.210Z,1415
2016-12-17T09:45:52.202Z,1705
2016-12-17T09:46:52.185Z,1830
2016-12-17T09:47:52.179Z,1590
2016-12-17T09:48:52.162Z,1605
2016-12-17T09:49:52.151Z,1745
2016-12-17T09:50:52.164Z,1650
2016-12-17T09:51:52.429Z,1515
2016-12-17T09:52:52.115Z,1525
2016-12-17T09:53:52.101Z,1675
2016-12-17T09:54:52.094Z,1815
2016-12-17T09:55:52.078Z,1890
2016-12-17T09:56:52.070Z,1825
2016-12-17T09:57:52.052Z,1790
2016-12-17T09:58:52.042Z,1900
2016-12-17T09:59:52.033Z,1815
2016-12-17T10:00:52.025Z,1660
2016-12-17T10:01:52.007Z,1755
2016-12-17T10:02:51.994Z,1820
2016-12-17T10:03:51.985Z,1705
2016-12-17T10:04:51.972Z,1635
2016-12-17T10:05:51.965Z,1690
2016-12-17T10:06:51.951Z,1645
2016-12-17T10:07:51.944Z,1515
2016-12-17T10:08:51.920Z,1530
2016-12-17T10:09:51.918Z,1570
2016-12-17T10:10:51.901Z,1605
2016-12-17T10:11:51.894Z,1735
2016-12-17T10:12:52.179Z,1760
2016-12-17T10:13:52.173Z,1790
2016-12-17T10:14:51.853Z,1765
2016-12-17T10:15:51.838Z,1650
2016-12-17T10:16:51.834Z,1655
2016-12-17T10:17:51.820Z,1755
2016-12-17T10:18:51.813Z,1555
2016-12-17T10:19:51.802Z,1515
2016-12-17T10:20:51.795Z,1510
2016-12-17T10:21:51.777Z,1475
2016-12-17T10:22:51.765Z,1560
2016-12-17T10:23:51.750Z,1285
2016-12-17T10:24:51.744Z,1510
2016-12-17T10:25:51.727Z,1805
2016-12-17T10:26:51.720Z,1745
2016-12-17T10:27:51.705Z,1700
2016-12-17T10:28:51.692Z,1820
2016-12-17T10:29:51.689Z,1935
2016-12-17T10:30:52.008Z,1990
2016-12-17T10:31:51.661Z,2080
2016-12-17T10:32:51.644Z,1950
2016-12-17T10:33:51.667Z,1545
2016-12-17T10:34:51.622Z,1800
2016-12-17T10:35:51.617Z,1820
2016-12-17T10:36:51.600Z,1755
2016-12-17T10:37:51.596Z,1800
2016-12-17T10:38:51.575Z,1895
2016-12-17T10:39:51.564Z,1960
2016-12-17T10:40:51.555Z,1935
2016-12-17T10:41:51.536Z,1775
2016-12-17T10:42:51.528Z,1755
2016-12-17T10:43:51.520Z,1725
2016-12-17T10:44:51.525Z,1585
2016-12-17T10:45:51.514Z,1550
2016-12-17T10:46:51.476Z,1520
2016-12-17T10:47:51.483Z,1560
2016-12-17T10:48:51.447Z,1645
2016-12-17T10:49:51.430Z,1715
2016-12-17T10:50:51.422Z,1825
2016-12-17T10:51:51.401Z,1870
2016-12-17T10:52:51.391Z,1720
2016-12-17T10:53:51.385Z,1720
2016-12-17T10:54:51.359Z,1730
2016-12-17T10:55:51.353Z,1670
2016-12-17T10:56:51.335Z,1795
2016-12-17T10:57:51.314Z,1655
2016-12-17T10:58:51.310Z,1945
2016-12-17T10:59:51.283Z,1885
2016-12-17T11:00:51.280Z,1750
2016-12-17T11:01:51.286Z,1705
2016-12-17T11:02:51.244Z,1455
2016-12-17T11:03:51.235Z,1330
2016-12-17T11:04:51.220Z,1285
2016-12-17T11:05:51.197Z,1425
2016-12-17T11:06:51.181Z,1340
2016-12-17T11:07:51.167Z,1445
2016-12-17T11:08:51.159Z,1575
2016-12-17T11:09:51.139Z,1610
2016-12-17T11:10:51.126Z,1780
2016-12-17T11:11:51.110Z,1745
2016-12-17T11:12:51.100Z,1550
2016-12-17T11:13:51.085Z,1485
2016-12-17T11:14:51.079Z,1440
2016-12-17T11:15:51.060Z,1430
2016-12-17T11:16:51.046Z,1330
2016-12-17T11:17:51.031Z,1560
2016-12-17T11:18:51.018Z,1640
2016-12-17T11:19:51.014Z,1295
2016-12-17T11:20:50.991Z,1265
2016-12-17T11:21:50.981Z,1420
2016-12-17T11:22:50.965Z,1470
2016-12-17T11:23:50.956Z,1505
2016-12-17T11:24:50.941Z,1565
2016-12-17T11:25:50.924Z,1565
2016-12-17T11:26:50.911Z,1625
2016-12-17T11:27:51.050Z,1615
2016-12-17T11:28:50.884Z,1600
2016-12-17T11:29:50.874Z,1680
2016-12-17T11:30:50.890Z,1685
2016-12-17T11:31:50.847Z,1680
2016-12-17T11:32:50.836Z,1385
2016-12-17T11:33:50.824Z,1620
2016-12-17T11:34:50.808Z,1500
2016-12-17T11:35:50.795Z,1450
2016-12-17T11:36:50.787Z,1495
2016-12-17T11:37:50.767Z,1375
2016-12-17T11:38:50.751Z,1240
2016-12-17T11:39:50.744Z,1590
2016-12-17T11:40:50.733Z,1700
2016-12-17T11:41:50.717Z,1655
2016-12-17T11:42:50.707Z,1620
2016-12-17T11:43:50.690Z,1695
2016-12-17T11:44:50.677Z,1600
2016-12-17T11:45:50.669Z,1720
2016-12-17T11:46:50.654Z,1715
2016-12-17T11:47:50.644Z,1625
2016-12-17T11:48:50.631Z,1650
2016-12-17T11:49:50.619Z,1680
2016-12-17T11:50:50.607Z,1745
2016-12-17T11:51:50.601Z,1685
2016-12-17T11:52:50.884Z,1500
2016-12-17T11:53:50.568Z,1540
2016-12-17T11:54:50.555Z,1880
2016-12-17T11:55:50.574Z,1685
2016-12-17T11:56:50.533Z,1520
2016-12-17T11:57:50.522Z,1580
2016-12-17T11:58:50.505Z,1635
2016-12-17T11:59:50.503Z,1620
2016-12-17T12:00:50.488Z,1605
2016-12-17T12:01:50.472Z,1535
2016-12-17T12:02:50.461Z,1470
2016-12-17T12:03:50.448Z,1430
2016-12-17T12:04:50.459Z,1480
2016-12-17T12:05:50.426Z,1515
2016-12-17T12:06:50.410Z,1535
2016-12-17T12:07:50.395Z,1560
2016-12-17T12:08:50.383Z,1645
2016-12-17T12:09:50.368Z,1750
2016-12-17T12:10:50.362Z,1625
2016-12-17T12:11:50.345Z,1435
2016-12-17T12:12:50.332Z,1435
2016-12-17T12:13:50.318Z,1440
2016-12-17T12:14:50.310Z,1470
2016-12-17T12:15:50.290Z,1455
2016-12-17T12:16:50.280Z,1520
2016-12-17T12:17:50.266Z,1450
2016-12-17T12:18:50.259Z,1470
2016-12-17T12:19:50.242Z,1455
2016-12-17T12:20:50.235Z,1450
2016-12-17T12:21:50.222Z,1345
2016-12-17T12:22:50.205Z,1390
2016-12-17T12:23:50.191Z,1430
2016-12-17T12:24:50.177Z,1330
2016-12-17T12:25:50.469Z,1370
2016-12-17T12:26:50.174Z,1370
2016-12-17T12:27:50.144Z,1400
2016-12-17T12:28:50.128Z,1380
2016-12-17T12:29:50.120Z,1380
2016-12-17T12:30:50.103Z,1305
2016-12-17T12:31:50.093Z,1170
2016-12-17T12:32:50.079Z,1125
2016-12-17T12:33:50.065Z,1140
2016-12-17T12:34:50.054Z,1235
2016-12-17T12:35:50.045Z,1315
2016-12-17T12:36:50.033Z,1135
2016-12-17T12:37:50.019Z,1140
2016-12-17T12:38:50.009Z,1120
2016-12-17T12:39:49.995Z,1155
2016-12-17T12:40:49.986Z,1145
2016-12-17T12:41:49.967Z,1090
2016-12-17T12:42:49.953Z,1090
2016-12-17T12:43:49.946Z,1095
2016-12-17T12:44:49.928Z,1170
2016-12-17T12:45:49.916Z,1200
2016-12-17T12:46:49.904Z,1290
2016-12-17T12:47:49.893Z,1335
2016-12-17T12:48:49.880Z,1345
2016-12-17T12:49:49.868Z,1320
2016-12-17T12:50:49.850Z,1465
2016-12-17T12:51:49.837Z,1535
2016-12-17T12:52:49.826Z,1425
2016-12-17T12:53:49.811Z,1475
2016-12-17T12:54:49.803Z,1510
2016-12-17T12:55:49.787Z,1425
2016-12-17T12:56:49.776Z,1240
2016-12-17T12:57:49.758Z,1130
2016-12-17T12:58:49.747Z,965
2016-12-17T12:59:49.730Z,1090
2016-12-17T13:00:49.720Z,1305
2016-12-17T13:01:49.701Z,1225
2016-12-17T13:02:49.695Z,1220
2016-12-17T13:03:49.676Z,1210
2016-12-17T13:04:49.669Z,1185
2016-12-17T13:05:49.656Z,1290
2016-12-17T13:06:49.636Z,1350
2016-12-17T13:07:49.621Z,1410
2016-12-17T13:08:49.611Z,1470
2016-12-17T13:09:49.598Z,1445
2016-12-17T13:10:49.587Z,1415
2016-12-17T13:11:49.572Z,1485
2016-12-17T13:12:49.559Z,1390
2016-12-17T13:13:49.543Z,1150
2016-12-17T13:14:49.532Z,1080
2016-12-17T13:15:49.530Z,990
2016-12-17T13:16:49.505Z,1085
2016-12-17T13:17:49.492Z,1065
2016-12-17T13:18:49.479Z,875
2016-12-17T13:19:49.621Z,1010
2016-12-17T13:20:49.754Z,1055
2016-12-17T13:21:49.443Z,1040
2016-12-17T13:22:49.430Z,955
2016-12-17T13:23:49.418Z,940
2016-12-17T13:24:49.404Z,1100
2016-12-17T13:25:49.390Z,1140
2016-12-17T13:26:49.380Z,1200
2016-12-17T13:27:49.362Z,1150
2016-12-17T13:28:49.350Z,1140
2016-12-17T13:29:49.368Z,1015
2016-12-17T13:30:49.329Z,970
2016-12-17T13:31:49.315Z,925
2016-12-17T13:32:49.303Z,875
2016-12-17T13:33:49.288Z,920
2016-12-17T13:34:49.273Z,1030
2016-12-17T13:35:49.260Z,1135
2016-12-17T13:36:49.251Z,1185
2016-12-17T13:37:49.235Z,1280
2016-12-17T13:38:49.251Z,1120
2016-12-17T13:39:49.204Z,1010
2016-12-17T13:40:49.197Z,1085
2016-12-17T13:41:49.181Z,1125
2016-12-17T13:42:49.166Z,1100
2016-12-17T13:43:49.153Z,1220
2016-12-17T13:44:49.139Z,1205
2016-12-17T13:45:49.133Z,1185
2016-12-17T13:46:49.116Z,1160
2016-12-17T13:47:49.102Z,1165
2016-12-17T13:48:49.090Z,1305
2016-12-17T13:49:49.076Z,1240
2016-12-17T13:50:49.060Z,1085
2016-12-17T13:51:49.048Z,1030
2016-12-17T13:52:49.037Z,925
2016-12-17T13:53:49.023Z,760
2016-12-17T13:54:49.015Z,640
2016-12-17T13:55:48.995Z,565
2016-12-17T13:56:48.986Z,500
2016-12-17T13:57:48.968Z,445
2016-12-17T13:58:48.959Z,400
2016-12-17T13:59:48.944Z,385
2016-12-17T14:00:48.931Z,375
2016-12-17T14:01:48.917Z,360
2016-12-17T14:02:48.899Z,350
2016-12-17T14:03:48.886Z,340